createdAt,value
2023-04-05T00:00:39.625Z,1.17
2023-04-05T00:03:10.317Z,1.20
2023-04-05T00:05:38.041Z,1.13
2023-04-05T00:08:08.475Z,0.95
2023-04-05T00:10:36.469Z,0.98
2023-04-05T00:13:03.760Z,1.17
2023-04-05T00:15:32.180Z,1.02
2023-04-05T00:18:00.448Z,1.17
2023-04-05T00:20:27.581Z,1.20
2023-04-05T00:22:54.681Z,1.27
2023-04-05T00:25:24.528Z,1.10
2023-04-05T00:27:51.828Z,0.98
2023-04-05T00:30:21.266Z,1.08
2023-04-05T00:32:51.716Z,1.10
2023-04-05T00:35:18.959Z,0.93
2023-04-05T00:37:46.129Z,1.20
2023-04-05T00:40:13.404Z,1.10
2023-04-05T00:42:40.571Z,1.00
2023-04-05T00:45:08.211Z,0.93
2023-04-05T00:47:35.648Z,1.20
2023-04-05T00:50:03.498Z,0.90
2023-04-05T00:52:32.438Z,1.27
2023-04-05T00:54:59.654Z,1.40
2023-04-05T00:57:27.003Z,0.75
2023-04-05T00:59:54.190Z,0.93
2023-04-05T01:02:36.832Z,1.15
2023-04-05T01:05:09.933Z,1.05
2023-04-05T01:07:51.124Z,0.93
2023-04-05T01:10:22.256Z,1.08
2023-04-05T01:12:49.591Z,1.13
2023-04-05T01:15:19.073Z,1.02
2023-04-05T01:20:15.373Z,1.00
2023-04-05T01:22:54.296Z,1.00
2023-04-05T01:25:45.462Z,1.10
2023-04-05T01:28:43.045Z,1.02
2023-04-05T01:31:38.250Z,1.00
2023-04-05T01:34:30.582Z,0.93
2023-04-05T01:37:02.150Z,1.13
2023-04-05T01:39:31.372Z,1.52
2023-04-05T01:42:01.364Z,1.20
2023-04-05T01:44:29.372Z,0.90
2023-04-05T01:46:57.369Z,1.08
2023-04-05T01:49:25.036Z,1.08
2023-04-05T01:51:52.442Z,1.25
2023-04-05T01:54:19.620Z,1.00
2023-04-05T01:56:46.794Z,1.10
2023-04-05T02:11:20.233Z,1.08
2023-04-05T02:13:47.343Z,1.20
2023-04-05T02:16:15.642Z,1.13
2023-04-05T02:18:43.904Z,1.17
2023-04-05T02:21:11.103Z,1.13
2023-04-05T02:23:38.314Z,1.20
2023-04-05T02:26:05.684Z,1.00
2023-04-05T02:28:32.850Z,1.30
2023-04-05T02:31:00.125Z,1.10
2023-04-05T02:33:27.898Z,1.20
2023-04-05T02:35:55.754Z,1.10
2023-04-05T02:38:22.952Z,1.40
2023-04-05T02:40:50.125Z,1.40
2023-04-05T02:43:17.470Z,1.33
2023-04-05T02:45:46.852Z,1.20
2023-04-05T02:48:14.383Z,1.20
2023-04-05T02:50:42.301Z,1.33
2023-04-05T02:53:09.757Z,1.10
2023-04-05T02:55:36.838Z,1.23
2023-04-05T02:58:04.022Z,1.23
2023-04-05T03:00:32.085Z,1.10
2023-04-05T03:02:59.535Z,1.27
2023-04-05T03:05:27.364Z,1.20
2023-04-05T03:07:54.896Z,1.30
2023-04-05T03:10:29.114Z,1.00
2023-04-05T03:12:56.417Z,1.20
2023-04-05T03:15:23.586Z,1.20
2023-04-05T03:17:50.976Z,1.08
2023-04-05T03:20:18.209Z,1.20
2023-04-05T03:22:47.039Z,1.30
2023-04-05T03:25:16.324Z,1.70
2023-04-05T03:27:43.429Z,1.30
2023-04-05T03:30:11.194Z,1.27
2023-04-05T03:32:38.517Z,1.02
2023-04-05T03:35:06.260Z,1.20
2023-04-05T03:37:33.392Z,1.38
2023-04-05T03:40:00.634Z,1.10
2023-04-05T03:42:27.768Z,1.40
2023-04-05T03:44:54.979Z,1.73
2023-04-05T03:47:22.334Z,1.63
2023-04-05T03:49:49.460Z,1.20
2023-04-05T03:52:16.672Z,1.40
2023-04-05T03:54:43.876Z,1.70
2023-04-05T03:57:11.004Z,1.60
2023-04-05T03:59:38.151Z,1.65
2023-04-05T04:02:05.490Z,1.50
2023-04-05T04:04:32.776Z,1.63
2023-04-05T04:07:01.526Z,1.65
2023-04-05T04:09:30.342Z,1.90
2023-04-05T04:11:57.685Z,1.23
2023-04-05T04:14:25.150Z,1.40
2023-04-05T04:16:52.280Z,1.33
2023-04-05T04:19:19.593Z,1.20
2023-04-05T04:21:51.783Z,1.20
2023-04-05T04:24:19.616Z,1.20
2023-04-05T04:26:47.628Z,1.20
2023-04-05T04:29:16.858Z,1.13
2023-04-05T04:31:49.810Z,1.08
2023-04-05T04:34:18.895Z,1.10
2023-04-05T04:36:46.710Z,1.17
2023-04-05T04:39:14.049Z,1.25
2023-04-05T04:41:45.120Z,1.27
2023-04-05T04:44:14.996Z,1.20
2023-04-05T04:46:44.897Z,1.38
2023-04-05T04:49:13.491Z,1.15
2023-04-05T04:51:40.841Z,1.25
2023-04-05T04:54:08.027Z,1.17
2023-04-05T04:56:35.183Z,1.20
2023-04-05T04:59:02.331Z,1.15
2023-04-05T05:01:29.608Z,1.42
2023-04-05T05:03:56.829Z,1.05
2023-04-05T05:06:23.977Z,1.10
2023-04-05T05:08:51.078Z,1.25
2023-04-05T05:11:18.036Z,0.93
2023-04-05T05:13:47.615Z,1.25
2023-04-05T05:16:17.395Z,1.15
2023-04-05T05:18:48.119Z,1.30
2023-04-05T05:21:15.738Z,1.67
2023-04-05T05:23:42.735Z,1.30
2023-04-05T05:26:09.884Z,1.08
2023-04-05T05:28:37.156Z,1.20
2023-04-05T05:31:04.655Z,1.35
2023-04-05T05:33:31.728Z,1.08
2023-04-05T05:35:58.804Z,1.20
2023-04-05T05:38:25.932Z,1.33
2023-04-05T05:40:57.797Z,1.60
2023-04-05T05:43:24.835Z,1.15
2023-04-05T05:45:51.881Z,1.40
2023-04-05T05:48:18.916Z,1.10
2023-04-05T05:50:48.719Z,1.35
2023-04-05T05:53:16.411Z,0.90
2023-04-05T05:55:43.757Z,1.30
2023-04-05T05:58:10.827Z,1.70
2023-04-05T06:00:39.457Z,1.05
2023-04-05T06:03:06.590Z,1.30
2023-04-05T06:05:33.642Z,1.45
2023-04-05T06:08:00.872Z,1.27
2023-04-05T06:10:27.945Z,1.13
2023-04-05T06:12:54.961Z,1.08
2023-04-05T06:15:22.005Z,1.30
2023-04-05T06:17:49.045Z,1.33
2023-04-05T06:20:16.555Z,1.08
2023-04-05T06:22:44.522Z,1.58
2023-04-05T06:25:13.172Z,1.20
2023-04-05T06:27:40.520Z,1.20
2023-04-05T06:30:08.170Z,1.00
2023-04-05T06:32:35.601Z,1.35
2023-04-05T06:35:06.391Z,1.40
2023-04-05T06:37:33.735Z,1.33
2023-04-05T06:40:00.866Z,1.23
2023-04-05T06:42:28.284Z,1.00
2023-04-05T06:44:55.612Z,1.15
2023-04-05T06:47:22.602Z,0.90
2023-04-05T06:49:49.645Z,1.30
2023-04-05T06:52:16.685Z,1.42
2023-04-05T06:54:43.696Z,1.10
2023-04-05T06:57:10.753Z,1.50
2023-04-05T06:59:37.692Z,1.60
2023-04-05T07:02:04.718Z,1.35
2023-04-05T07:04:36.794Z,1.23
2023-04-05T07:07:04.303Z,1.20
2023-04-05T07:09:33.190Z,1.50
2023-04-05T07:12:01.691Z,1.40
2023-04-05T07:14:31.103Z,2.13
2023-04-05T07:16:58.139Z,1.48
2023-04-05T07:19:25.362Z,1.40
2023-04-05T07:21:53.040Z,1.50
2023-04-05T07:24:20.509Z,1.70
2023-04-05T07:26:47.778Z,1.40
2023-04-05T07:29:14.881Z,1.65
2023-04-05T07:31:42.145Z,1.27
2023-04-05T07:34:09.354Z,1.23
2023-04-05T07:36:37.384Z,1.55
2023-04-05T07:39:05.381Z,1.40
2023-04-05T07:41:32.477Z,1.48
2023-04-05T07:43:59.784Z,1.48
2023-04-05T07:46:27.488Z,1.38
2023-04-05T07:48:55.030Z,1.15
2023-04-05T07:51:22.723Z,1.77
2023-04-05T07:53:49.780Z,1.48
2023-04-05T07:56:17.431Z,1.45
2023-04-05T07:58:44.529Z,1.50
2023-04-05T08:01:11.847Z,1.65
2023-04-05T08:03:40.428Z,1.48
2023-04-05T08:06:12.335Z,1.90
2023-04-05T08:08:40.210Z,1.40
2023-04-05T08:11:07.595Z,1.33
2023-04-05T08:13:34.663Z,1.52
2023-04-05T08:16:02.278Z,1.70
2023-04-05T08:18:29.507Z,1.80
2023-04-05T08:20:57.462Z,1.33
2023-04-05T08:23:24.573Z,1.38
2023-04-05T08:25:52.600Z,1.42
2023-04-05T08:28:19.952Z,1.75
2023-04-05T08:30:47.430Z,1.75
2023-04-05T08:33:14.872Z,1.52
2023-04-05T08:35:43.148Z,1.60
2023-04-05T08:38:12.227Z,1.55
2023-04-05T08:40:44.838Z,1.58
2023-04-05T08:43:19.773Z,1.60
2023-04-05T08:45:50.971Z,1.60
2023-04-05T08:48:21.726Z,1.50
2023-04-05T08:50:53.054Z,1.33
2023-04-05T08:53:21.431Z,1.60
2023-04-05T08:55:55.435Z,2.05
2023-04-05T08:58:24.153Z,1.42
2023-04-05T09:00:52.118Z,1.58
2023-04-05T09:03:23.217Z,1.48
2023-04-05T09:05:53.928Z,1.50
2023-04-05T09:08:24.077Z,1.50
2023-04-05T09:10:51.774Z,1.48
2023-04-05T09:13:19.399Z,1.30
2023-04-05T09:15:47.226Z,1.27
2023-04-05T09:18:23.683Z,1.60
2023-04-05T09:20:57.718Z,1.38
2023-04-05T09:23:26.216Z,1.90
2023-04-05T09:25:53.358Z,1.70
2023-04-05T09:28:20.460Z,1.60
2023-04-05T09:30:47.889Z,1.75
2023-04-05T09:33:19.993Z,1.80
2023-04-05T09:35:51.047Z,1.80
2023-04-05T09:38:18.224Z,1.45
2023-04-05T09:40:47.995Z,1.50
2023-04-05T09:43:38.904Z,1.50
2023-04-05T09:46:06.499Z,1.52
2023-04-05T09:48:50.188Z,1.48
2023-04-05T09:51:18.736Z,1.63
2023-04-05T09:54:09.952Z,1.50
2023-04-05T09:56:39.565Z,1.60
2023-04-05T09:59:11.758Z,1.42
2023-04-05T10:01:43.719Z,1.63
2023-04-05T10:04:11.098Z,1.75
2023-04-05T10:06:40.360Z,2.10
2023-04-05T10:09:08.913Z,1.52
2023-04-05T10:11:37.813Z,1.70
2023-04-05T10:14:07.070Z,1.60
2023-04-05T10:16:57.463Z,1.70
2023-04-05T10:19:37.385Z,1.70
2023-04-05T10:22:09.017Z,1.70
2023-04-05T10:24:48.515Z,1.83
2023-04-05T10:27:26.081Z,1.60
2023-04-05T10:30:09.839Z,1.70
2023-04-05T10:32:46.128Z,1.90
2023-04-05T10:35:37.219Z,1.73
2023-04-05T10:38:25.707Z,1.73
2023-04-05T10:41:01.200Z,1.45
2023-04-05T10:43:32.054Z,1.70
2023-04-05T10:46:00.803Z,1.75
2023-04-05T10:48:56.399Z,1.73
2023-04-05T10:51:26.870Z,2.08
2023-04-05T10:53:56.408Z,1.60
2023-04-05T10:56:25.034Z,2.00
2023-04-05T10:58:53.071Z,1.80
2023-04-05T11:01:21.644Z,1.77
2023-04-05T11:03:50.464Z,1.70
2023-04-05T11:06:24.489Z,2.03
2023-04-05T11:09:07.916Z,1.98
2023-04-05T11:12:01.497Z,1.95
2023-04-05T11:14:39.188Z,1.92
2023-04-05T11:17:28.166Z,1.90
2023-04-05T11:20:05.495Z,1.80
2023-04-05T11:22:32.627Z,2.03
2023-04-05T11:25:03.015Z,2.00
2023-04-05T11:27:32.297Z,1.83
2023-04-05T11:30:01.487Z,1.80
2023-04-05T11:32:43.201Z,1.88
2023-04-05T11:35:34.737Z,2.30
2023-04-05T11:38:01.746Z,2.10
2023-04-05T11:40:33.941Z,1.63
2023-04-05T11:43:12.291Z,2.13
2023-04-05T11:45:41.970Z,2.53
2023-04-05T11:48:11.419Z,1.83
2023-04-05T11:50:41.812Z,1.85
2023-04-05T11:53:16.575Z,2.00
2023-04-05T11:55:50.561Z,1.70
2023-04-05T11:58:23.370Z,2.03
2023-04-05T12:01:00.265Z,2.60
2023-04-05T12:03:29.389Z,2.10
2023-04-05T12:05:58.679Z,2.40
2023-04-05T12:11:08.983Z,2.03
2023-04-05T12:13:36.728Z,2.08
2023-04-05T12:16:05.903Z,2.20
2023-04-05T12:18:37.621Z,2.70
2023-04-05T12:21:09.383Z,2.40
2023-04-05T12:23:37.463Z,1.85
2023-04-05T12:26:07.203Z,2.22
2023-04-05T12:28:54.215Z,2.20
2023-04-05T12:31:43.375Z,2.25
2023-04-05T12:34:11.959Z,2.30
2023-04-05T12:36:43.390Z,2.40
2023-04-05T12:39:10.910Z,1.95
2023-04-05T12:41:38.084Z,2.05
2023-04-05T12:44:29.988Z,1.83
2023-04-05T12:47:05.327Z,1.60
2023-04-05T12:49:37.940Z,2.08
2023-04-05T12:52:04.906Z,1.63
2023-04-05T12:54:32.442Z,2.03
2023-04-05T12:57:04.391Z,2.00
2023-04-05T12:59:31.705Z,1.70
2023-04-05T13:01:58.908Z,1.73
2023-04-05T13:04:26.874Z,1.83
2023-04-05T13:06:55.067Z,2.08
2023-04-05T13:09:22.228Z,1.88
2023-04-05T13:11:50.582Z,1.77
2023-04-05T13:14:18.123Z,1.85
2023-04-05T13:16:45.180Z,1.83
2023-04-05T13:19:12.236Z,1.52
2023-04-05T13:21:39.179Z,2.00
2023-04-05T13:24:06.363Z,1.73
2023-04-05T13:26:33.386Z,1.70
2023-04-05T13:29:00.562Z,1.58
2023-04-05T13:31:27.763Z,1.52
2023-04-05T13:33:54.876Z,1.85
2023-04-05T13:36:21.845Z,1.80
2023-04-05T13:38:48.852Z,1.60
2023-04-05T13:41:16.227Z,1.70
2023-04-05T13:43:43.268Z,1.88
2023-04-05T13:46:10.467Z,1.90
2023-04-05T13:48:38.734Z,1.40
2023-04-05T13:51:05.853Z,1.60
2023-04-05T13:53:32.915Z,1.58
2023-04-05T13:55:59.997Z,1.52
2023-04-05T13:58:27.002Z,1.60
2023-04-05T14:00:54.125Z,1.80
2023-04-05T14:03:21.279Z,1.33
2023-04-05T14:05:50.708Z,1.30
2023-04-05T14:08:19.028Z,1.90
2023-04-05T14:10:46.196Z,1.80
2023-04-05T14:13:16.290Z,1.50
2023-04-05T14:15:44.098Z,1.73
2023-04-05T14:18:11.373Z,1.67
2023-04-05T14:20:38.953Z,1.48
2023-04-05T14:23:06.290Z,1.58
2023-04-05T14:25:33.429Z,1.52
2023-04-05T14:28:00.462Z,1.55
2023-04-05T14:30:27.672Z,1.63
2023-04-05T14:32:54.859Z,1.60
2023-04-05T14:35:21.899Z,1.50
2023-04-05T14:37:48.894Z,1.60
2023-04-05T14:40:16.137Z,1.40
2023-04-05T14:42:49.381Z,1.60
2023-04-05T14:45:18.068Z,1.50
2023-04-05T14:47:45.632Z,1.88
2023-04-05T14:50:12.714Z,1.42
2023-04-05T14:52:40.105Z,2.00
2023-04-05T14:55:10.541Z,1.60
2023-04-05T14:57:38.866Z,1.77
2023-04-05T15:00:07.361Z,1.20
2023-04-05T15:02:36.445Z,1.48
2023-04-05T15:05:07.733Z,1.42
2023-04-05T15:07:34.828Z,1.60
2023-04-05T15:10:01.957Z,1.23
2023-04-05T15:12:29.127Z,1.38
2023-04-05T15:14:56.246Z,1.40
2023-04-05T15:17:23.497Z,1.45
2023-04-05T15:19:50.612Z,1.40
2023-04-05T15:22:17.745Z,2.13
2023-04-05T15:24:44.825Z,1.52
2023-04-05T15:27:12.021Z,1.60
2023-04-05T15:29:39.627Z,1.33
2023-04-05T15:32:06.814Z,1.52
2023-04-05T15:34:36.470Z,1.10
2023-04-05T15:37:03.568Z,1.35
2023-04-05T15:39:30.680Z,1.40
2023-04-05T15:41:57.949Z,1.52
2023-04-05T15:44:25.765Z,1.33
2023-04-05T15:46:52.975Z,1.20
2023-04-05T15:49:20.173Z,1.27
2023-04-05T15:51:47.585Z,1.60
2023-04-05T15:54:18.860Z,1.20
2023-04-05T15:56:46.426Z,1.65
2023-04-05T15:59:14.589Z,1.30
2023-04-05T16:01:43.628Z,1.35
2023-04-05T16:04:11.065Z,0.98
2023-04-05T16:06:58.524Z,1.27
2023-04-05T16:09:25.661Z,1.70
2023-04-05T16:11:53.074Z,1.60
2023-04-05T16:14:20.406Z,1.13
2023-04-05T16:16:53.583Z,1.55
2023-04-05T16:19:21.394Z,1.25
2023-04-05T16:21:49.516Z,1.23
2023-04-05T16:24:16.826Z,1.50
2023-04-05T16:26:43.917Z,1.30
2023-04-05T16:29:10.971Z,1.20
2023-04-05T16:31:38.379Z,1.30
2023-04-05T16:34:05.520Z,1.20
2023-04-05T16:36:32.522Z,1.17
2023-04-05T16:38:59.685Z,1.10
2023-04-05T16:41:26.823Z,1.55
2023-04-05T16:43:53.827Z,1.65
2023-04-05T16:46:20.857Z,0.90
2023-04-05T16:48:48.633Z,1.38
2023-04-05T16:51:15.947Z,1.70
2023-04-05T16:53:43.121Z,1.10
2023-04-05T16:56:10.308Z,1.40
2023-04-05T16:58:37.374Z,1.10
2023-04-05T17:01:04.615Z,1.35
2023-04-05T17:03:31.652Z,3.13
2023-04-05T17:05:58.643Z,3.55
2023-04-05T17:08:25.665Z,1.30
2023-04-05T17:10:52.960Z,1.60
2023-04-05T17:13:20.050Z,1.70
2023-04-05T17:15:52.446Z,1.67
2023-04-05T17:18:19.713Z,1.60
2023-04-05T17:20:47.037Z,1.75
2023-04-05T17:23:14.283Z,1.50
2023-04-05T17:25:44.897Z,1.23
2023-04-05T17:28:13.140Z,1.80
2023-04-05T17:30:40.613Z,1.38
2023-04-05T17:33:07.929Z,1.63
2023-04-05T17:35:35.144Z,1.75
2023-04-05T17:38:03.515Z,1.40
2023-04-05T17:40:31.241Z,1.85
2023-04-05T17:42:58.433Z,1.80
2023-04-05T17:45:25.510Z,1.80
2023-04-05T17:47:52.575Z,1.60
2023-04-05T17:50:19.696Z,1.80
2023-04-05T17:52:47.065Z,1.70
2023-04-05T17:55:14.212Z,1.80
2023-04-05T17:57:41.265Z,2.08
2023-04-05T18:00:10.879Z,1.90
2023-04-05T18:02:40.768Z,1.90
2023-04-05T18:05:10.098Z,1.70
2023-04-05T18:10:05.863Z,1.88
2023-04-05T18:12:33.789Z,1.80
2023-04-05T18:15:01.013Z,1.80
2023-04-05T18:17:28.375Z,1.90
2023-04-05T18:19:55.668Z,1.98
2023-04-05T18:22:23.179Z,2.03
2023-04-05T18:24:50.387Z,2.30
2023-04-05T18:27:18.002Z,2.55
2023-04-05T18:29:46.204Z,2.30
2023-04-05T18:32:13.257Z,2.45
2023-04-05T18:34:40.293Z,3.72
2023-04-05T18:37:07.403Z,3.92
2023-04-05T18:39:34.471Z,2.63
2023-04-05T18:42:02.802Z,2.15
2023-04-05T18:44:30.034Z,2.40
2023-04-05T18:46:58.308Z,2.17
2023-04-05T18:49:25.667Z,2.35
2023-04-05T18:51:52.937Z,3.10
2023-04-05T18:54:20.336Z,3.35
2023-04-05T18:56:47.482Z,2.88
2023-04-05T18:59:16.247Z,2.65
2023-04-05T19:01:43.765Z,3.75
2023-04-05T19:04:10.960Z,3.33
2023-04-05T19:06:38.055Z,2.47
2023-04-05T19:09:06.251Z,3.20
2023-04-05T19:11:33.574Z,3.40
2023-04-05T19:14:03.705Z,3.60
2023-04-05T19:16:31.176Z,3.28
2023-04-05T19:18:58.307Z,3.30
2023-04-05T19:21:26.068Z,3.28
2023-04-05T19:23:53.116Z,3.60
2023-04-05T19:26:22.371Z,2.97
2023-04-05T19:28:49.835Z,3.33
2023-04-05T19:31:17.128Z,2.70
2023-04-05T19:33:44.233Z,2.97
2023-04-05T19:36:11.350Z,3.10
2023-04-05T19:38:39.966Z,3.20
2023-04-05T19:41:07.126Z,2.63
2023-04-05T19:43:36.788Z,2.95
2023-04-05T19:46:09.796Z,2.80
2023-04-05T19:48:41.866Z,3.03
2023-04-05T19:51:14.381Z,2.50
2023-04-05T19:53:44.585Z,2.30
2023-04-05T19:56:24.064Z,2.55
2023-04-05T19:58:58.405Z,2.50
2023-04-05T20:01:39.380Z,2.45
2023-04-05T20:04:14.687Z,1.85
2023-04-05T20:06:43.883Z,1.90
2023-04-05T20:09:17.096Z,1.85
2023-04-05T20:11:54.515Z,2.00
2023-04-05T20:14:29.133Z,2.30
2023-04-05T20:16:57.795Z,2.17
2023-04-05T20:19:29.806Z,4.15
2023-04-05T20:22:01.514Z,3.85
2023-04-05T20:24:29.479Z,3.67
2023-04-05T20:26:59.666Z,3.38
2023-04-05T20:29:28.732Z,3.85
2023-04-05T20:31:56.039Z,3.85
2023-04-05T20:34:38.186Z,3.15
2023-04-05T20:37:11.096Z,4.15
2023-04-05T20:39:38.551Z,3.85
2023-04-05T20:42:07.177Z,3.90
2023-04-05T20:44:34.333Z,3.60
2023-04-05T20:47:01.508Z,2.75
2023-04-05T20:49:29.077Z,2.03
2023-04-05T20:51:57.385Z,2.60
2023-04-05T20:54:24.886Z,2.60
2023-04-05T20:56:51.971Z,2.28
2023-04-05T20:59:19.188Z,2.53
2023-04-05T21:01:47.717Z,1.90
2023-04-05T21:04:15.231Z,1.92
2023-04-05T21:06:42.499Z,1.98
2023-04-05T21:09:10.381Z,1.77
2023-04-05T21:11:37.881Z,2.10
2023-04-05T21:14:05.156Z,2.30
2023-04-05T21:16:32.397Z,1.70
2023-04-05T21:18:59.658Z,2.00
2023-04-05T21:21:27.532Z,2.10
2023-04-05T21:23:54.766Z,2.25
2023-04-05T21:26:21.902Z,2.05
2023-04-05T21:28:49.182Z,2.20
2023-04-05T21:31:16.671Z,2.05
2023-04-05T21:33:43.968Z,2.50
2023-04-05T21:36:11.193Z,2.30
2023-04-05T21:38:38.486Z,2.20
2023-04-05T21:41:05.784Z,2.10
2023-04-05T21:43:33.113Z,2.38
2023-04-05T21:46:00.270Z,2.40
2023-04-05T21:48:28.450Z,2.00
2023-04-05T21:50:56.158Z,1.90
2023-04-05T21:53:25.604Z,2.28
2023-04-05T21:55:53.056Z,2.47
2023-04-05T21:58:20.423Z,3.15
2023-04-05T22:00:47.791Z,2.15
2023-04-05T22:03:15.129Z,2.38
2023-04-05T22:05:42.376Z,5.63
2023-04-05T22:08:10.249Z,5.88
2023-04-05T22:10:38.000Z,2.15
2023-04-05T22:13:05.282Z,2.17
2023-04-05T22:15:32.509Z,2.75
2023-04-05T22:18:00.164Z,2.67
2023-04-05T22:20:27.625Z,2.13
2023-04-05T22:22:55.663Z,1.63
2023-04-05T22:25:23.215Z,2.15
2023-04-05T22:27:50.644Z,1.90
2023-04-05T22:30:17.995Z,1.98
2023-04-05T22:32:45.271Z,1.65
2023-04-05T22:35:12.537Z,1.80
2023-04-05T22:37:40.941Z,2.10
2023-04-05T22:40:09.503Z,2.00
2023-04-05T22:42:38.465Z,2.47
2023-04-05T22:45:07.492Z,2.50
2023-04-05T22:47:34.978Z,1.90
2023-04-05T22:50:02.268Z,1.90
2023-04-05T22:52:29.571Z,1.65
2023-04-05T22:54:57.007Z,2.08
2023-04-05T22:57:24.168Z,2.00
2023-04-05T22:59:51.269Z,1.70
2023-04-05T23:02:18.869Z,2.10
2023-04-05T23:04:46.257Z,2.00
2023-04-05T23:07:13.608Z,1.80
2023-04-05T23:09:41.013Z,1.70
2023-04-05T23:12:08.627Z,1.38
2023-04-05T23:14:36.182Z,1.70
2023-04-05T23:17:05.154Z,1.50
2023-04-05T23:19:32.738Z,1.42
2023-04-05T23:22:00.099Z,1.40
2023-04-05T23:24:27.403Z,1.60
2023-04-05T23:26:54.666Z,1.35
2023-04-05T23:29:21.905Z,1.48
2023-04-05T23:31:49.231Z,1.50
2023-04-05T23:34:16.533Z,1.40
2023-04-05T23:36:43.797Z,1.60
2023-04-05T23:39:11.249Z,1.70
2023-04-05T23:41:38.412Z,1.70
2023-04-05T23:44:06.444Z,1.40
2023-04-05T23:46:34.156Z,1.48
2023-04-05T23:49:01.345Z,1.38
2023-04-05T23:51:28.613Z,1.35
2023-04-05T23:53:56.287Z,1.40
2023-04-05T23:56:23.519Z,1.42
2023-04-05T23:58:51.074Z,1.67
